sensor_id;sensor_type;location;lat;lon;timestamp;pressure;altitude;pressure_sealevel;temperature;humidity
48053;BME280;33824;51.600;5.718;2023-05-10T00:00:13;100668.16;;;14.09;100.00
48053;BME280;33824;51.600;5.718;2023-05-10T00:02:58;100671.84;;;14.08;100.00
48053;BME280;33824;51.600;5.718;2023-05-10T00:05:24;100666.47;;;14.08;100.00
48053;BME280;33824;51.600;5.718;2023-05-10T00:07:50;100669.97;;;14.02;100.00
48053;BME280;33824;51.600;5.718;2023-05-10T00:10:16;100659.84;;;13.98;100.00
48053;BME280;33824;51.600;5.718;2023-05-10T00:12:41;100663.78;;;13.95;100.00
48053;BME280;33824;51.600;5.718;2023-05-10T00:15:08;100669.75;;;13.97;100.00
48053;BME280;33824;51.600;5.718;2023-05-10T00:17:34;100663.78;;;13.95;100.00
48053;BME280;33824;51.600;5.718;2023-05-10T00:20:00;100665.44;;;13.96;100.00
48053;BME280;33824;51.600;5.718;2023-05-10T00:22:25;100662.94;;;13.94;100.00
48053;BME280;33824;51.600;5.718;2023-05-10T00:24:51;100666.63;;;13.93;100.00
48053;BME280;33824;51.600;5.718;2023-05-10T00:27:16;100666.84;;;13.92;100.00
48053;BME280;33824;51.600;5.718;2023-05-10T00:29:42;100669.72;;;13.90;100.00
48053;BME280;33824;51.600;5.718;2023-05-10T00:32:08;100667.03;;;13.90;100.00
48053;BME280;33824;51.600;5.718;2023-05-10T00:34:33;100663.75;;;13.88;100.00
48053;BME280;33824;51.600;5.718;2023-05-10T00:36:59;100665.78;;;13.86;100.00
48053;BME280;33824;51.600;5.718;2023-05-10T00:39:25;100661.44;;;13.85;100.00
48053;BME280;33824;51.600;5.718;2023-05-10T00:41:51;100665.75;;;13.80;100.00
48053;BME280;33824;51.600;5.718;2023-05-10T00:44:17;100666.38;;;13.82;100.00
48053;BME280;33824;51.600;5.718;2023-05-10T00:46:44;100663.69;;;13.82;100.00
48053;BME280;33824;51.600;5.718;2023-05-10T00:49:10;100660.63;;;13.85;100.00
48053;BME280;33824;51.600;5.718;2023-05-10T00:51:36;100655.47;;;13.83;100.00
48053;BME280;33824;51.600;5.718;2023-05-10T00:54:02;100653.63;;;13.84;100.00
48053;BME280;33824;51.600;5.718;2023-05-10T00:56:28;100658.75;;;13.85;100.00
48053;BME280;33824;51.600;5.718;2023-05-10T00:58:55;100659.16;;;13.82;100.00
48053;BME280;33824;51.600;5.718;2023-05-10T01:01:20;100661.41;;;13.79;100.00
48053;BME280;33824;51.600;5.718;2023-05-10T01:03:46;100661.59;;;13.77;100.00
48053;BME280;33824;51.600;5.718;2023-05-10T01:06:12;100657.06;;;13.71;100.00
48053;BME280;33824;51.600;5.718;2023-05-10T01:08:38;100666.94;;;13.71;100.00
48053;BME280;33824;51.600;5.718;2023-05-10T01:11:04;100670.63;;;13.70;100.00
48053;BME280;33824;51.600;5.718;2023-05-10T01:13:35;100663.59;;;13.62;100.00
48053;BME280;33824;51.600;5.718;2023-05-10T01:16:02;100666.31;;;13.69;100.00
48053;BME280;33824;51.600;5.718;2023-05-10T01:18:30;100668.59;;;13.72;100.00
48053;BME280;33824;51.600;5.718;2023-05-10T01:23:45;100667.97;;;13.70;100.00
48053;BME280;33824;51.600;5.718;2023-05-10T01:26:36;100667.53;;;13.66;100.00
48053;BME280;33824;51.600;5.718;2023-05-10T01:29:20;100667.34;;;13.68;100.00
48053;BME280;33824;51.600;5.718;2023-05-10T01:34:35;100662.66;;;13.76;100.00
48053;BME280;33824;51.600;5.718;2023-05-10T01:37:13;100661.59;;;13.77;100.00
48053;BME280;33824;51.600;5.718;2023-05-10T01:42:21;100666.84;;;13.92;100.00
48053;BME280;33824;51.600;5.718;2023-05-10T01:45:24;100667.94;;;13.63;100.00
48053;BME280;33824;51.600;5.718;2023-05-10T01:47:42;100667.44;;;13.87;100.00
48053;BME280;33824;51.600;5.718;2023-05-10T01:50:19;100663.53;;;13.90;100.00
48053;BME280;33824;51.600;5.718;2023-05-10T01:52:50;100670.56;;;13.98;100.00
48053;BME280;33824;51.600;5.718;2023-05-10T01:55:18;100659.25;;;14.02;100.00
48053;BME280;33824;51.600;5.718;2023-05-10T01:57:48;100661.75;;;14.04;100.00
48053;BME280;33824;51.600;5.718;2023-05-10T02:00:17;100662.34;;;14.06;100.00
48053;BME280;33824;51.600;5.718;2023-05-10T02:02:48;100662.16;;;14.07;100.00
48053;BME280;33824;51.600;5.718;2023-05-10T02:05:16;100661.13;;;14.08;100.00
48053;BME280;33824;51.600;5.718;2023-05-10T02:07:43;100670.16;;;14.01;100.00
48053;BME280;33824;51.600;5.718;2023-05-10T02:10:10;100674.50;;;13.95;100.00
48053;BME280;33824;51.600;5.718;2023-05-10T02:12:36;100673.25;;;13.98;100.00
48053;BME280;33824;51.600;5.718;2023-05-10T02:15:05;100678.63;;;13.98;100.00
48053;BME280;33824;51.600;5.718;2023-05-10T02:17:32;100678.59;;;13.91;100.00
48053;BME280;33824;51.600;5.718;2023-05-10T02:20:01;100684.13;;;13.83;100.00
48053;BME280;33824;51.600;5.718;2023-05-10T02:22:27;100684.72;;;13.85;100.00
48053;BME280;33824;51.600;5.718;2023-05-10T02:24:55;100691.97;;;13.84;100.00
48053;BME280;33824;51.600;5.718;2023-05-10T02:27:23;100686.22;;;13.87;100.00
48053;BME280;33824;51.600;5.718;2023-05-10T02:29:51;100688.66;;;13.89;100.00
48053;BME280;33824;51.600;5.718;2023-05-10T02:32:17;100689.31;;;13.91;100.00
48053;BME280;33824;51.600;5.718;2023-05-10T02:34:44;100685.41;;;14.00;100.00
48053;BME280;33824;51.600;5.718;2023-05-10T02:37:13;100693.47;;;14.00;100.00
48053;BME280;33824;51.600;5.718;2023-05-10T02:39:40;100684.63;;;14.06;100.00
48053;BME280;33824;51.600;5.718;2023-05-10T02:42:16;100688.31;;;13.99;100.00
48053;BME280;33824;51.600;5.718;2023-05-10T02:44:43;100685.25;;;14.08;100.00
48053;BME280;33824;51.600;5.718;2023-05-10T02:47:08;100682.38;;;14.10;100.00
48053;BME280;33824;51.600;5.718;2023-05-10T02:49:34;100685.66;;;14.05;100.00
48053;BME280;33824;51.600;5.718;2023-05-10T02:52:01;100688.56;;;14.10;100.00
48053;BME280;33824;51.600;5.718;2023-05-10T02:54:33;100682.97;;;14.05;100.00
48053;BME280;33824;51.600;5.718;2023-05-10T02:57:04;100679.28;;;14.13;100.00
48053;BME280;33824;51.600;5.718;2023-05-10T02:59:31;100685.47;;;14.07;100.00
48053;BME280;33824;51.600;5.718;2023-05-10T03:01:59;100685.47;;;14.07;100.00
48053;BME280;33824;51.600;5.718;2023-05-10T03:04:25;100679.28;;;14.13;100.00
48053;BME280;33824;51.600;5.718;2023-05-10T03:06:51;100682.19;;;14.18;100.00
48053;BME280;33824;51.600;5.718;2023-05-10T03:09:17;100679.09;;;14.14;100.00
48053;BME280;33824;51.600;5.718;2023-05-10T03:12:02;100686.91;;;14.03;100.00
48053;BME280;33824;51.600;5.718;2023-05-10T03:17:11;100686.72;;;14.11;100.00
48053;BME280;33824;51.600;5.718;2023-05-10T03:19:47;100685.06;;;14.16;100.00
48053;BME280;33824;51.600;5.718;2023-05-10T03:22:23;100688.19;;;14.20;100.00
48053;BME280;33824;51.600;5.718;2023-05-10T03:24:51;100692.16;;;14.30;100.00
48053;BME280;33824;51.600;5.718;2023-05-10T03:27:20;100691.94;;;14.32;100.00
48053;BME280;33824;51.600;5.718;2023-05-10T03:29:46;100695.72;;;14.37;100.00
48053;BME280;33824;51.600;5.718;2023-05-10T03:32:12;100699.66;;;14.42;100.00
48053;BME280;33824;51.600;5.718;2023-05-10T03:34:41;100700.03;;;14.38;100.00
48053;BME280;33824;51.600;5.718;2023-05-10T03:37:08;100703.34;;;14.40;100.00
48053;BME280;33824;51.600;5.718;2023-05-10T03:39:33;100707.88;;;14.40;100.00
48053;BME280;33824;51.600;5.718;2023-05-10T03:41:59;100703.75;;;14.37;100.00
48053;BME280;33824;51.600;5.718;2023-05-10T03:44:24;100708.06;;;14.38;100.00
48053;BME280;33824;51.600;5.718;2023-05-10T03:46:50;100704.78;;;14.36;100.00
48053;BME280;33824;51.600;5.718;2023-05-10T03:49:15;100706.19;;;14.32;100.00
48053;BME280;33824;51.600;5.718;2023-05-10T03:51:41;100711.16;;;14.35;100.00
48053;BME280;33824;51.600;5.718;2023-05-10T03:54:06;100712.38;;;14.33;100.00
48053;BME280;33824;51.600;5.718;2023-05-10T03:56:32;100709.06;;;14.31;100.00
48053;BME280;33824;51.600;5.718;2023-05-10T03:58:58;100706.81;;;14.34;100.00
48053;BME280;33824;51.600;5.718;2023-05-10T04:01:23;100719.41;;;14.34;100.00
48053;BME280;33824;51.600;5.718;2023-05-10T04:03:52;100717.31;;;14.29;100.00
48053;BME280;33824;51.600;5.718;2023-05-10T04:06:17;100714.88;;;14.34;100.00
48053;BME280;33824;51.600;5.718;2023-05-10T04:08:43;100717.50;;;14.28;100.00
48053;BME280;33824;51.600;5.718;2023-05-10T04:11:11;100720.19;;;14.28;100.00
48053;BME280;33824;51.600;5.718;2023-05-10T04:13:37;100723.09;;;14.33;100.00
48053;BME280;33824;51.600;5.718;2023-05-10T04:16:03;100719.44;;;14.40;100.00
48053;BME280;33824;51.600;5.718;2023-05-10T04:18:29;100727.91;;;14.37;100.00
48053;BME280;33824;51.600;5.718;2023-05-10T04:20:55;100728.28;;;14.34;100.00
48053;BME280;33824;51.600;5.718;2023-05-10T04:23:24;100723.16;;;14.39;100.00
48053;BME280;33824;51.600;5.718;2023-05-10T04:25:49;100718.22;;;14.43;100.00
48053;BME280;33824;51.600;5.718;2023-05-10T04:28:15;100722.97;;;14.41;100.00
48053;BME280;33824;51.600;5.718;2023-05-10T04:30:40;100725.66;;;14.41;100.00
48053;BME280;33824;51.600;5.718;2023-05-10T04:33:06;100729.75;;;14.44;100.00
48053;BME280;33824;51.600;5.718;2023-05-10T04:35:32;100726.47;;;14.48;100.00
48053;BME280;33824;51.600;5.718;2023-05-10T04:37:57;100726.91;;;14.52;100.00
48053;BME280;33824;51.600;5.718;2023-05-10T04:40:23;100722.38;;;14.52;100.00
48053;BME280;33824;51.600;5.718;2023-05-10T04:42:49;100730.19;;;14.54;100.00
48053;BME280;33824;51.600;5.718;2023-05-10T04:45:14;100731.84;;;14.55;100.00
48053;BME280;33824;51.600;5.718;2023-05-10T04:47:40;100725.06;;;14.59;100.00
48053;BME280;33824;51.600;5.718;2023-05-10T04:50:06;100729.00;;;14.63;100.00
48053;BME280;33824;51.600;5.718;2023-05-10T04:52:32;100739.31;;;14.66;100.00
48053;BME280;33824;51.600;5.718;2023-05-10T04:54:58;100740.34;;;14.65;100.00
48053;BME280;33824;51.600;5.718;2023-05-10T04:57:23;100737.88;;;14.70;100.00
48053;BME280;33824;51.600;5.718;2023-05-10T04:59:49;100739.97;;;14.68;100.00
48053;BME280;33824;51.600;5.718;2023-05-10T05:02:14;100744.50;;;14.61;100.00
48053;BME280;33824;51.600;5.718;2023-05-10T05:04:40;100748.84;;;14.68;100.00
48053;BME280;33824;51.600;5.718;2023-05-10T05:07:06;100748.63;;;14.70;100.00
48053;BME280;33824;51.600;5.718;2023-05-10T05:09:31;100746.75;;;14.70;100.00
48053;BME280;33824;51.600;5.718;2023-05-10T05:11:57;100746.94;;;14.56;100.00
48053;BME280;33824;51.600;5.718;2023-05-10T05:14:23;100753.28;;;14.42;100.00
48053;BME280;33824;51.600;5.718;2023-05-10T05:16:51;100755.06;;;14.28;100.00
48053;BME280;33824;51.600;5.718;2023-05-10T05:19:17;100757.63;;;14.08;100.00
48053;BME280;33824;51.600;5.718;2023-05-10T05:21:42;100763.66;;;14.17;100.00
48053;BME280;33824;51.600;5.718;2023-05-10T05:24:08;100760.59;;;14.20;100.00
48053;BME280;33824;51.600;5.718;2023-05-10T05:26:35;100764.50;;;14.17;100.00
48053;BME280;33824;51.600;5.718;2023-05-10T05:29:01;100762.22;;;14.14;100.00
48053;BME280;33824;51.600;5.718;2023-05-10T05:31:27;100760.56;;;14.13;100.00
48053;BME280;33824;51.600;5.718;2023-05-10T05:33:52;100771.28;;;14.13;100.00
48053;BME280;33824;51.600;5.718;2023-05-10T05:36:18;100767.59;;;14.14;100.00
48053;BME280;33824;51.600;5.718;2023-05-10T05:38:43;100770.44;;;14.13;100.00
48053;BME280;33824;51.600;5.718;2023-05-10T05:41:09;100770.84;;;14.10;100.00
48053;BME280;33824;51.600;5.718;2023-05-10T05:43:34;100775.03;;;14.19;100.00
48053;BME280;33824;51.600;5.718;2023-05-10T05:46:00;100778.34;;;14.27;100.00
48053;BME280;33824;51.600;5.718;2023-05-10T05:48:26;100774.84;;;14.27;100.00
48053;BME280;33824;51.600;5.718;2023-05-10T05:50:55;100781.28;;;14.32;100.00
48053;BME280;33824;51.600;5.718;2023-05-10T05:53:21;100780.56;;;14.45;100.00
48053;BME280;33824;51.600;5.718;2023-05-10T05:55:54;100777.69;;;14.53;100.00
48053;BME280;33824;51.600;5.718;2023-05-10T05:58:21;100777.06;;;14.58;100.00
48053;BME280;33824;51.600;5.718;2023-05-10T06:00:47;100778.13;;;14.63;100.00
48053;BME280;33824;51.600;5.718;2023-05-10T06:03:12;100782.66;;;14.63;100.00
48053;BME280;33824;51.600;5.718;2023-05-10T06:05:38;100788.88;;;14.70;100.00
48053;BME280;33824;51.600;5.718;2023-05-10T06:08:03;100784.94;;;14.66;100.00
48053;BME280;33824;51.600;5.718;2023-05-10T06:10:29;100787.25;;;14.75;100.00
48053;BME280;33824;51.600;5.718;2023-05-10T06:12:55;100793.63;;;14.74;100.00
48053;BME280;33824;51.600;5.718;2023-05-10T06:15:21;100800.44;;;14.70;100.00
48053;BME280;33824;51.600;5.718;2023-05-10T06:17:47;100803.31;;;14.62;100.00
48053;BME280;33824;51.600;5.718;2023-05-10T06:20:17;100802.25;;;14.57;100.00
48053;BME280;33824;51.600;5.718;2023-05-10T06:22:42;100809.50;;;14.63;100.00
48053;BME280;33824;51.600;5.718;2023-05-10T06:25:10;100802.09;;;14.71;100.00
48053;BME280;33824;51.600;5.718;2023-05-10T06:27:35;100800.25;;;14.78;100.00
48053;BME280;33824;51.600;5.718;2023-05-10T06:30:01;100804.22;;;14.96;100.00
48053;BME280;33824;51.600;5.718;2023-05-10T06:32:28;100796.00;;;15.10;100.00
48053;BME280;33824;51.600;5.718;2023-05-10T06:34:53;100802.81;;;15.19;100.00
48053;BME280;33824;51.600;5.718;2023-05-10T06:37:19;100807.16;;;15.14;100.00
48053;BME280;33824;51.600;5.718;2023-05-10T06:39:45;100803.44;;;15.21;100.00
48053;BME280;33824;51.600;5.718;2023-05-10T06:42:11;100806.94;;;15.15;100.00
48053;BME280;33824;51.600;5.718;2023-05-10T06:44:36;100805.09;;;15.03;100.00
48053;BME280;33824;51.600;5.718;2023-05-10T06:47:02;100804.63;;;14.93;100.00
48053;BME280;33824;51.600;5.718;2023-05-10T06:49:27;100805.25;;;14.95;100.00
48053;BME280;33824;51.600;5.718;2023-05-10T06:51:53;100806.72;;;15.04;100.00
48053;BME280;33824;51.600;5.718;2023-05-10T06:54:20;100815.81;;;15.03;100.00
48053;BME280;33824;51.600;5.718;2023-05-10T06:56:45;100820.91;;;14.84;100.00
48053;BME280;33824;51.600;5.718;2023-05-10T06:59:11;100824.06;;;15.01;100.00
48053;BME280;33824;51.600;5.718;2023-05-10T07:01:39;100830.09;;;15.10;100.00
48053;BME280;33824;51.600;5.718;2023-05-10T07:04:04;100825.31;;;15.05;100.00
48053;BME280;33824;51.600;5.718;2023-05-10T07:06:30;100828.19;;;15.04;100.00
48053;BME280;33824;51.600;5.718;2023-05-10T07:08:56;100834.63;;;15.03;100.00
48053;BME280;33824;51.600;5.718;2023-05-10T07:11:22;100831.94;;;15.03;100.00
48053;BME280;33824;51.600;5.718;2023-05-10T07:13:47;100832.72;;;14.83;100.00
48053;BME280;33824;51.600;5.718;2023-05-10T07:16:13;100836.00;;;14.85;100.00
48053;BME280;33824;51.600;5.718;2023-05-10T07:18:38;100842.44;;;14.98;100.00
48053;BME280;33824;51.600;5.718;2023-05-10T07:21:04;100853.78;;;15.00;100.00
48053;BME280;33824;51.600;5.718;2023-05-10T07:23:29;100858.56;;;14.98;100.00
48053;BME280;33824;51.600;5.718;2023-05-10T07:25:55;100846.38;;;15.08;100.00
48053;BME280;33824;51.600;5.718;2023-05-10T07:28:23;100852.19;;;15.12;100.00
48053;BME280;33824;51.600;5.718;2023-05-10T07:30:49;100845.38;;;15.16;100.00
48053;BME280;33824;51.600;5.718;2023-05-10T07:33:15;100852.00;;;15.20;100.00
48053;BME280;33824;51.600;5.718;2023-05-10T07:35:42;100852.00;;;15.26;100.00
48053;BME280;33824;51.600;5.718;2023-05-10T07:38:08;100851.38;;;15.18;100.00
48053;BME280;33824;51.600;5.718;2023-05-10T07:40:34;100861.91;;;15.13;100.00
48053;BME280;33824;51.600;5.718;2023-05-10T07:42:59;100856.13;;;15.22;100.00
48053;BME280;33824;51.600;5.718;2023-05-10T07:45:28;100862.13;;;15.31;100.00
48053;BME280;33824;51.600;5.718;2023-05-10T07:47:53;100853.88;;;15.46;100.00
48053;BME280;33824;51.600;5.718;2023-05-10T07:50:19;100863.44;;;15.61;100.00
48053;BME280;33824;51.600;5.718;2023-05-10T07:52:46;100863.25;;;15.63;100.00
48053;BME280;33824;51.600;5.718;2023-05-10T07:55:12;100864.69;;;15.59;100.00
48053;BME280;33824;51.600;5.718;2023-05-10T07:57:38;100862.00;;;15.52;100.00
48053;BME280;33824;51.600;5.718;2023-05-10T08:00:04;100871.03;;;15.45;100.00
48053;BME280;33824;51.600;5.718;2023-05-10T08:02:29;100868.97;;;15.47;100.00
48053;BME280;33824;51.600;5.718;2023-05-10T08:04:55;100874.13;;;15.42;100.00
48053;BME280;33824;51.600;5.718;2023-05-10T08:07:21;100867.97;;;15.48;100.00
48053;BME280;33824;51.600;5.718;2023-05-10T08:09:48;100873.34;;;15.54;100.00
48053;BME280;33824;51.600;5.718;2023-05-10T08:12:13;100874.59;;;15.58;100.00
48053;BME280;33824;51.600;5.718;2023-05-10T08:14:39;100882.81;;;15.44;100.00
48053;BME280;33824;51.600;5.718;2023-05-10T08:17:05;100883.03;;;15.49;100.00
48053;BME280;33824;51.600;5.718;2023-05-10T08:19:31;100888.41;;;15.49;100.00
48053;BME280;33824;51.600;5.718;2023-05-10T08:21:57;100887.38;;;15.36;100.00
48053;BME280;33824;51.600;5.718;2023-05-10T08:24:23;100892.31;;;15.33;100.00
48053;BME280;33824;51.600;5.718;2023-05-10T08:26:48;100896.66;;;15.34;100.00
48053;BME280;33824;51.600;5.718;2023-05-10T08:29:14;100906.59;;;15.47;100.00
48053;BME280;33824;51.600;5.718;2023-05-10T08:31:40;100902.50;;;15.57;100.00
48053;BME280;33824;51.600;5.718;2023-05-10T08:34:06;100909.75;;;15.76;100.00
48053;BME280;33824;51.600;5.718;2023-05-10T08:36:32;100903.34;;;15.77;100.00
48053;BME280;33824;51.600;5.718;2023-05-10T08:38:58;100909.34;;;15.93;100.00
48053;BME280;33824;51.600;5.718;2023-05-10T08:41:24;100910.81;;;16.08;100.00
48053;BME280;33824;51.600;5.718;2023-05-10T08:43:54;100906.47;;;16.01;100.00
48053;BME280;33824;51.600;5.718;2023-05-10T08:46:22;100911.19;;;16.18;100.00
48053;BME280;33824;51.600;5.718;2023-05-10T08:48:49;100912.66;;;16.27;100.00
48053;BME280;33824;51.600;5.718;2023-05-10T08:51:19;100917.22;;;16.01;100.00
48053;BME280;33824;51.600;5.718;2023-05-10T08:53:45;100915.97;;;16.03;100.00
48053;BME280;33824;51.600;5.718;2023-05-10T08:56:11;100921.16;;;15.85;100.00
48053;BME280;33824;51.600;5.718;2023-05-10T08:58:37;100919.28;;;15.59;100.00
48053;BME280;33824;51.600;5.718;2023-05-10T09:01:03;100930.84;;;15.60;100.00
48053;BME280;33824;51.600;5.718;2023-05-10T09:03:30;100926.31;;;15.80;100.00
48053;BME280;33824;51.600;5.718;2023-05-10T09:05:56;100924.22;;;15.75;100.00
48053;BME280;33824;51.600;5.718;2023-05-10T09:08:26;100927.94;;;15.68;100.00
48053;BME280;33824;51.600;5.718;2023-05-10T09:10:52;100938.47;;;15.56;100.00
48053;BME280;33824;51.600;5.718;2023-05-10T09:13:18;100936.78;;;15.49;100.00
48053;BME280;33824;51.600;5.718;2023-05-10T09:15:45;100939.53;;;15.55;100.00
48053;BME280;33824;51.600;5.718;2023-05-10T09:18:11;100942.44;;;15.67;100.00
48053;BME280;33824;51.600;5.718;2023-05-10T09:20:37;100946.56;;;15.76;100.00
48053;BME280;33824;51.600;5.718;2023-05-10T09:23:02;100945.13;;;16.00;100.00
48053;BME280;33824;51.600;5.718;2023-05-10T09:25:28;100950.09;;;16.03;100.00
48053;BME280;33824;51.600;5.718;2023-05-10T09:27:54;100947.81;;;16.06;100.00
48053;BME280;33824;51.600;5.718;2023-05-10T09:30:30;100946.78;;;15.94;100.00
48053;BME280;33824;51.600;5.718;2023-05-10T09:32:58;100949.69;;;15.99;100.00
48053;BME280;33824;51.600;5.718;2023-05-10T09:35:25;100951.56;;;15.92;100.00
48053;BME280;33824;51.600;5.718;2023-05-10T09:37:54;100956.94;;;15.92;100.00
48053;BME280;33824;51.600;5.718;2023-05-10T09:40:21;100961.25;;;15.87;100.00
48053;BME280;33824;51.600;5.718;2023-05-10T09:43:00;100964.78;;;15.80;100.00
48053;BME280;33824;51.600;5.718;2023-05-10T09:45:27;100970.16;;;16.07;100.00
48053;BME280;33824;51.600;5.718;2023-05-10T09:47:54;100965.22;;;16.04;100.00
48053;BME280;33824;51.600;5.718;2023-05-10T09:50:20;100978.25;;;16.07;100.00
48053;BME280;33824;51.600;5.718;2023-05-10T09:55:24;100975.56;;;16.20;100.00
48053;BME280;33824;51.600;5.718;2023-05-10T09:57:59;100973.47;;;16.42;100.00
48053;BME280;33824;51.600;5.718;2023-05-10T10:00:25;100971.00;;;16.47;100.00
48053;BME280;33824;51.600;5.718;2023-05-10T10:02:56;100968.91;;;16.49;99.62
48053;BME280;33824;51.600;5.718;2023-05-10T10:05:33;100970.38;;;16.31;98.82
48053;BME280;33824;51.600;5.718;2023-05-10T10:08:01;100975.75;;;16.64;100.00
48053;BME280;33824;51.600;5.718;2023-05-10T10:10:27;100975.50;;;16.79;100.00
48053;BME280;33824;51.600;5.718;2023-05-10T10:12:54;100969.06;;;16.87;100.00
48053;BME280;33824;51.600;5.718;2023-05-10T10:15:21;100974.41;;;16.93;100.00
48053;BME280;33824;51.600;5.718;2023-05-10T10:17:48;100971.94;;;16.92;100.00
48053;BME280;33824;51.600;5.718;2023-05-10T10:20:15;100976.47;;;17.04;100.00
48053;BME280;33824;51.600;5.718;2023-05-10T10:22:41;100972.72;;;17.12;100.00
48053;BME280;33824;51.600;5.718;2023-05-10T10:25:10;100971.66;;;17.19;100.00
48053;BME280;33824;51.600;5.718;2023-05-10T10:30:31;100969.81;;;17.51;99.86
48053;BME280;33824;51.600;5.718;2023-05-10T10:36:05;100972.63;;;17.69;98.54
48053;BME280;33824;51.600;5.718;2023-05-10T10:41:31;100971.47;;;18.15;98.64
48053;BME280;33824;51.600;5.718;2023-05-10T10:44:23;100970.84;;;18.38;97.15
48053;BME280;33824;51.600;5.718;2023-05-10T10:49:42;100964.41;;;18.63;96.45
48053;BME280;33824;51.600;5.718;2023-05-10T10:52:15;100968.66;;;18.53;96.05
48053;BME280;33824;51.600;5.718;2023-05-10T10:57:24;100974.53;;;18.68;96.54
48053;BME280;33824;51.600;5.718;2023-05-10T11:00:21;100963.88;;;18.73;96.91
48053;BME280;33824;51.600;5.718;2023-05-10T11:02:58;100963.28;;;19.07;96.84
48053;BME280;33824;51.600;5.718;2023-05-10T11:07:58;100963.47;;;19.42;95.73
48053;BME280;33824;51.600;5.718;2023-05-10T11:10:26;100974.06;;;19.44;94.49
48053;BME280;33824;51.600;5.718;2023-05-10T11:13:10;100968.31;;;19.04;93.42
48053;BME280;33824;51.600;5.718;2023-05-10T11:15:38;100973.34;;;18.82;93.01
48053;BME280;33824;51.600;5.718;2023-05-10T11:18:20;100983.84;;;18.22;89.02
48053;BME280;33824;51.600;5.718;2023-05-10T11:20:56;100980.28;;;18.04;92.58
48053;BME280;33824;51.600;5.718;2023-05-10T11:23:23;100983.72;;;17.86;93.07
48053;BME280;33824;51.600;5.718;2023-05-10T11:25:49;100984.63;;;17.80;94.16
48053;BME280;33824;51.600;5.718;2023-05-10T11:28:17;100988.59;;;17.71;93.55
48053;BME280;33824;51.600;5.718;2023-05-10T11:30:45;100986.72;;;17.71;94.17
48053;BME280;33824;51.600;5.718;2023-05-10T11:33:16;100993.16;;;17.70;94.50
48053;BME280;33824;51.600;5.718;2023-05-10T11:35:42;100995.66;;;17.72;95.35
48053;BME280;33824;51.600;5.718;2023-05-10T11:38:12;100999.44;;;17.64;94.96
48053;BME280;33824;51.600;5.718;2023-05-10T11:40:38;101001.56;;;17.43;94.87
48053;BME280;33824;51.600;5.718;2023-05-10T11:43:04;101005.41;;;17.22;95.24
48053;BME280;33824;51.600;5.718;2023-05-10T11:45:34;100998.22;;;17.03;95.51
48053;BME280;33824;51.600;5.718;2023-05-10T11:48:01;100998.44;;;16.95;96.31
48053;BME280;33824;51.600;5.718;2023-05-10T11:50:27;100997.00;;;16.86;96.46
48053;BME280;33824;51.600;5.718;2023-05-10T11:52:56;100997.88;;;16.66;96.63
48053;BME280;33824;51.600;5.718;2023-05-10T11:55:22;100994.59;;;16.64;97.10
48053;BME280;33824;51.600;5.718;2023-05-10T11:57:53;100994.38;;;16.59;97.38
48053;BME280;33824;51.600;5.718;2023-05-10T12:00:19;100992.94;;;16.63;97.70
48053;BME280;33824;51.600;5.718;2023-05-10T12:02:45;100999.75;;;16.53;97.42
48053;BME280;33824;51.600;5.718;2023-05-10T12:05:11;100992.69;;;16.52;98.09
48053;BME280;33824;51.600;5.718;2023-05-10T12:07:37;101002.25;;;16.54;98.87
48053;BME280;33824;51.600;5.718;2023-05-10T12:10:07;101007.63;;;16.41;98.63
48053;BME280;33824;51.600;5.718;2023-05-10T12:12:44;101008.66;;;16.33;99.27
48053;BME280;33824;51.600;5.718;2023-05-10T12:15:22;101009.91;;;16.38;99.94
48053;BME280;33824;51.600;5.718;2023-05-10T12:17:47;101006.81;;;16.47;100.00
48053;BME280;33824;51.600;5.718;2023-05-10T12:20:15;101003.72;;;16.57;100.00
48053;BME280;33824;51.600;5.718;2023-05-10T12:22:44;101009.72;;;16.65;100.00
48053;BME280;33824;51.600;5.718;2023-05-10T12:25:10;101003.06;;;16.81;100.00
48053;BME280;33824;51.600;5.718;2023-05-10T12:27:35;101009.44;;;16.93;100.00
48053;BME280;33824;51.600;5.718;2023-05-10T12:30:01;101006.31;;;17.03;100.00
48053;BME280;33824;51.600;5.718;2023-05-10T12:32:37;101014.38;;;17.03;100.00
48053;BME280;33824;51.600;5.718;2023-05-10T12:35:03;101019.09;;;17.20;100.00
48053;BME280;33824;51.600;5.718;2023-05-10T12:37:29;101022.19;;;17.24;100.00
48053;BME280;33824;51.600;5.718;2023-05-10T12:39:55;101015.56;;;17.20;100.00
48053;BME280;33824;51.600;5.718;2023-05-10T12:42:20;101024.91;;;17.17;100.00
48053;BME280;33824;51.600;5.718;2023-05-10T12:44:46;101019.56;;;17.04;100.00
48053;BME280;33824;51.600;5.718;2023-05-10T12:47:11;101030.19;;;16.79;100.00
48053;BME280;33824;51.600;5.718;2023-05-10T12:49:37;101031.44;;;16.64;100.00
48053;BME280;33824;51.600;5.718;2023-05-10T12:52:03;101038.91;;;16.68;100.00
48053;BME280;33824;51.600;5.718;2023-05-10T12:54:28;101038.47;;;16.71;100.00
48053;BME280;33824;51.600;5.718;2023-05-10T12:56:54;101039.91;;;16.74;100.00
48053;BME280;33824;51.600;5.718;2023-05-10T12:59:20;101045.91;;;16.83;100.00
48053;BME280;33824;51.600;5.718;2023-05-10T13:01:45;101046.72;;;16.90;100.00
48053;BME280;33824;51.600;5.718;2023-05-10T13:04:11;101046.34;;;16.93;100.00
48053;BME280;33824;51.600;5.718;2023-05-10T13:06:37;101050.25;;;16.90;100.00
48053;BME280;33824;51.600;5.718;2023-05-10T13:09:03;101049.88;;;16.80;100.00
48053;BME280;33824;51.600;5.718;2023-05-10T13:11:29;101049.47;;;16.70;100.00